createdAt,value
2023-02-09T00:00:33.503Z,86.91
2023-02-09T00:01:33.488Z,87.02
2023-02-09T00:02:33.459Z,87.44
2023-02-09T00:03:33.477Z,87.54
2023-02-09T00:04:33.424Z,87.65
2023-02-09T00:05:33.453Z,87.75
2023-02-09T00:06:33.413Z,88.10
2023-02-09T00:07:33.351Z,88.70
2023-02-09T00:08:33.322Z,88.38
2023-02-09T00:09:33.303Z,89.01
2023-02-09T00:10:33.285Z,88.38
2023-02-09T00:11:33.287Z,88.38
2023-02-09T00:12:33.230Z,88.70
2023-02-09T00:13:33.208Z,88.07
2023-02-09T00:14:33.192Z,87.65
2023-02-09T00:15:33.165Z,87.23
2023-02-09T00:16:33.165Z,87.68
2023-02-09T00:17:33.178Z,87.79
2023-02-09T00:18:33.099Z,88.10
2023-02-09T00:19:33.463Z,87.58
2023-02-09T00:20:33.051Z,88.17
2023-02-09T00:21:33.029Z,88.07
2023-02-09T00:22:33.000Z,87.75
2023-02-09T00:23:33.012Z,88.10
2023-02-09T00:24:32.957Z,88.84
2023-02-09T00:25:32.936Z,88.67
2023-02-09T00:26:32.911Z,89.26
2023-02-09T00:27:32.890Z,88.89
2023-02-09T00:28:32.893Z,88.74
2023-02-09T00:29:32.866Z,88.35
2023-02-09T00:30:32.894Z,88.57
2023-02-09T00:31:32.884Z,89.09
2023-02-09T00:32:32.776Z,87.83
2023-02-09T00:33:32.759Z,88.25
2023-02-09T00:34:32.768Z,88.99
2023-02-09T00:35:32.715Z,88.63
2023-02-09T00:36:32.682Z,88.74
2023-02-09T00:37:32.665Z,89.89
2023-02-09T00:38:32.637Z,88.89
2023-02-09T00:39:32.629Z,88.84
2023-02-09T00:40:32.591Z,88.89
2023-02-09T00:41:32.579Z,89.09
2023-02-09T00:42:32.612Z,88.42
2023-02-09T00:43:32.534Z,88.78
2023-02-09T00:44:32.502Z,88.46
2023-02-09T00:45:32.496Z,88.95
2023-02-09T00:46:32.456Z,89.20
2023-02-09T00:47:32.429Z,89.30
2023-02-09T00:48:32.434Z,88.78
2023-02-09T00:49:32.395Z,88.89
2023-02-09T00:50:32.369Z,89.37
2023-02-09T00:51:32.341Z,88.99
2023-02-09T00:52:32.315Z,89.30
2023-02-09T00:53:32.318Z,88.89
2023-02-09T00:54:32.269Z,88.67
2023-02-09T00:55:32.248Z,89.30
2023-02-09T00:56:32.230Z,89.83
2023-02-09T00:57:32.200Z,90.04
2023-02-09T00:58:32.207Z,90.25
2023-02-09T00:59:32.154Z,90.04
2023-02-09T01:00:32.163Z,90.36
2023-02-09T01:01:32.209Z,90.36
2023-02-09T01:02:32.086Z,89.94
2023-02-09T01:03:32.077Z,90.88
2023-02-09T01:04:32.065Z,89.72
2023-02-09T01:05:32.041Z,90.36
2023-02-09T01:06:32.002Z,90.14
2023-02-09T01:07:31.969Z,89.62
2023-02-09T01:08:31.944Z,89.09
2023-02-09T01:09:31.919Z,89.20
2023-02-09T01:10:31.930Z,89.72
2023-02-09T01:11:31.880Z,90.25
2023-02-09T01:12:31.924Z,89.41
2023-02-09T01:13:31.830Z,89.94
2023-02-09T01:14:31.816Z,90.14
2023-02-09T01:15:31.787Z,90.25
2023-02-09T01:16:31.942Z,90.14
2023-02-09T01:17:31.746Z,90.56
2023-02-09T01:18:31.750Z,90.04
2023-02-09T01:19:31.692Z,91.09
2023-02-09T01:20:31.668Z,89.72
2023-02-09T01:21:31.659Z,89.66
2023-02-09T01:22:31.660Z,89.66
2023-02-09T01:23:31.644Z,89.34
2023-02-09T01:24:31.655Z,89.98
2023-02-09T01:25:31.563Z,89.56
2023-02-09T01:26:31.529Z,89.56
2023-02-09T01:27:31.556Z,89.98
2023-02-09T01:28:31.512Z,89.72
2023-02-09T01:29:31.483Z,89.56
2023-02-09T01:30:31.543Z,89.83
2023-02-09T01:31:31.734Z,90.50
2023-02-09T01:32:31.389Z,89.56
2023-02-09T01:33:31.366Z,90.50
2023-02-09T01:34:31.346Z,90.08
2023-02-09T01:35:32.384Z,90.92
2023-02-09T01:36:31.338Z,89.98
2023-02-09T01:37:31.331Z,89.98
2023-02-09T01:38:31.259Z,88.82
2023-02-09T01:39:31.232Z,88.92
2023-02-09T01:40:31.204Z,89.56
2023-02-09T01:41:31.185Z,89.87
2023-02-09T01:42:31.162Z,89.66
2023-02-09T01:43:31.203Z,90.19
2023-02-09T01:44:31.124Z,89.66
2023-02-09T01:45:31.098Z,89.30
2023-02-09T01:46:31.160Z,89.09
2023-02-09T01:47:31.048Z,88.92
2023-02-09T01:48:31.055Z,89.03
2023-02-09T01:49:31.045Z,88.82
2023-02-09T01:50:30.978Z,89.34
2023-02-09T01:51:30.954Z,88.92
2023-02-09T01:52:30.945Z,88.89
2023-02-09T01:53:30.911Z,89.66
2023-02-09T01:54:30.887Z,89.56
2023-02-09T01:55:30.869Z,89.30
2023-02-09T01:56:30.857Z,89.45
2023-02-09T01:57:30.817Z,89.66
2023-02-09T01:58:30.797Z,89.51
2023-02-09T01:59:30.779Z,89.14
2023-02-09T02:00:30.749Z,89.03
2023-02-09T02:01:30.851Z,88.92
2023-02-09T02:02:30.750Z,89.14
2023-02-09T02:03:30.684Z,89.45
2023-02-09T02:04:30.662Z,89.76
2023-02-09T02:05:30.672Z,89.87
2023-02-09T02:06:30.617Z,90.61
2023-02-09T02:07:30.600Z,90.08
2023-02-09T02:08:30.610Z,89.66
2023-02-09T02:09:30.538Z,89.66
2023-02-09T02:10:30.549Z,89.56
2023-02-09T02:11:30.529Z,90.82
2023-02-09T02:12:30.474Z,90.92
2023-02-09T02:13:30.449Z,90.82
2023-02-09T02:14:30.427Z,90.82
2023-02-09T02:15:30.434Z,90.40
2023-02-09T02:16:30.380Z,90.50
2023-02-09T02:17:30.437Z,90.82
2023-02-09T02:18:30.330Z,90.61
2023-02-09T02:19:30.332Z,89.66
2023-02-09T02:20:30.283Z,90.29
2023-02-09T02:21:30.299Z,90.61
2023-02-09T02:22:30.241Z,90.67
2023-02-09T02:23:30.212Z,90.29
2023-02-09T02:24:30.189Z,89.66
2023-02-09T02:25:30.164Z,89.87
2023-02-09T02:26:30.145Z,89.70
2023-02-09T02:27:30.166Z,90.12
2023-02-09T02:28:30.190Z,90.29
2023-02-09T02:29:30.069Z,90.44
2023-02-09T02:30:30.086Z,90.33
2023-02-09T02:31:30.153Z,90.75
2023-02-09T02:32:30.005Z,91.28
2023-02-09T02:33:30.022Z,91.17
2023-02-09T02:34:29.955Z,90.97
2023-02-09T02:35:29.931Z,91.28
2023-02-09T02:36:29.922Z,91.39
2023-02-09T02:37:29.886Z,90.86
2023-02-09T02:38:29.894Z,90.48
2023-02-09T02:39:29.839Z,90.01
2023-02-09T02:40:29.823Z,89.81
2023-02-09T02:41:29.793Z,89.70
2023-02-09T02:42:29.794Z,90.01
2023-02-09T02:43:29.777Z,90.01
2023-02-09T02:44:29.750Z,89.39
2023-02-09T02:45:29.700Z,89.81
2023-02-09T02:46:29.699Z,90.12
2023-02-09T02:47:29.652Z,89.59
2023-02-09T02:48:29.663Z,90.33
2023-02-09T02:49:29.621Z,89.91
2023-02-09T02:50:29.604Z,89.70
2023-02-09T02:51:29.595Z,89.91
2023-02-09T02:52:29.547Z,89.70
2023-02-09T02:53:29.518Z,89.49
2023-02-09T02:54:29.498Z,90.50
2023-02-09T02:55:29.490Z,90.75
2023-02-09T02:56:29.476Z,90.08
2023-02-09T02:57:29.432Z,89.98
2023-02-09T02:58:29.436Z,89.91
2023-02-09T02:59:29.382Z,89.03
2023-02-09T03:00:29.360Z,90.01
2023-02-09T03:01:29.374Z,89.59
2023-02-09T03:02:29.331Z,89.59
2023-02-09T03:03:29.325Z,88.44
2023-02-09T03:04:29.270Z,88.86
2023-02-09T03:05:29.292Z,88.60
2023-02-09T03:06:29.221Z,88.40
2023-02-09T03:07:29.203Z,88.44
2023-02-09T03:08:29.209Z,88.29
2023-02-09T03:09:29.202Z,88.08
2023-02-09T03:10:29.128Z,87.66
2023-02-09T03:11:29.103Z,86.93
2023-02-09T03:12:29.085Z,87.45
2023-02-09T03:13:29.077Z,88.29
2023-02-09T03:14:29.034Z,89.83
2023-02-09T03:15:29.052Z,88.57
2023-02-09T03:16:29.024Z,89.03
2023-02-09T03:17:28.964Z,88.82
2023-02-09T03:18:28.950Z,89.03
2023-02-09T03:19:28.919Z,89.24
2023-02-09T03:20:28.897Z,88.82
2023-02-09T03:21:28.902Z,88.29
2023-02-09T03:22:28.849Z,87.13
2023-02-09T03:23:28.823Z,87.76
2023-02-09T03:24:28.806Z,87.62
2023-02-09T03:25:28.779Z,87.76
2023-02-09T03:26:28.784Z,88.40
2023-02-09T03:27:28.729Z,88.08
2023-02-09T03:28:28.765Z,88.50
2023-02-09T03:29:28.683Z,88.82
2023-02-09T03:30:28.716Z,88.82
2023-02-09T03:31:28.751Z,87.87
2023-02-09T03:32:28.614Z,87.66
2023-02-09T03:33:28.589Z,89.34
2023-02-09T03:34:28.570Z,88.29
2023-02-09T03:35:28.586Z,87.87
2023-02-09T03:36:28.554Z,87.91
2023-02-09T03:37:28.546Z,87.38
2023-02-09T03:38:28.495Z,87.28
2023-02-09T03:39:28.462Z,87.60
2023-02-09T03:40:28.430Z,87.03
2023-02-09T03:41:28.415Z,87.13
2023-02-09T03:42:28.383Z,86.82
2023-02-09T03:43:28.361Z,86.82
2023-02-09T03:44:28.438Z,86.61
2023-02-09T03:45:28.311Z,86.08
2023-02-09T03:46:28.362Z,85.97
2023-02-09T03:47:28.270Z,87.87
2023-02-09T03:48:28.247Z,85.55
2023-02-09T03:49:28.220Z,86.68
2023-02-09T03:50:28.198Z,88.08
2023-02-09T03:51:28.202Z,86.61
2023-02-09T03:52:28.153Z,86.08
2023-02-09T03:53:28.127Z,84.40
2023-02-09T03:54:28.121Z,85.13
2023-02-09T03:55:28.090Z,85.66
2023-02-09T03:56:28.085Z,85.77
2023-02-09T03:57:28.036Z,87.30
2023-02-09T03:58:28.011Z,88.40
2023-02-09T03:59:27.995Z,88.40
2023-02-09T04:00:28.030Z,89.56
2023-02-09T04:01:27.941Z,89.24
2023-02-09T04:02:28.056Z,88.75
2023-02-09T04:03:27.894Z,87.85
2023-02-09T04:04:27.902Z,88.27
2023-02-09T04:05:27.846Z,88.06
2023-02-09T04:06:27.831Z,87.95
2023-02-09T04:07:27.797Z,89.28
2023-02-09T04:08:27.777Z,89.07
2023-02-09T04:09:27.778Z,88.23
2023-02-09T04:10:27.756Z,87.81
2023-02-09T04:11:27.700Z,88.12
2023-02-09T04:12:27.684Z,88.12
2023-02-09T04:13:27.656Z,89.49
2023-02-09T04:14:27.637Z,88.92
2023-02-09T04:15:27.641Z,86.76
2023-02-09T04:16:27.615Z,86.12
2023-02-09T04:17:27.572Z,85.60
2023-02-09T04:18:27.544Z,85.60
2023-02-09T04:19:27.548Z,85.63
2023-02-09T04:20:27.503Z,85.28
2023-02-09T04:21:27.467Z,85.80
2023-02-09T04:22:27.448Z,85.80
2023-02-09T04:23:27.423Z,86.37
2023-02-09T04:24:27.431Z,87.07
2023-02-09T04:25:27.407Z,86.27
2023-02-09T04:26:27.355Z,86.37
2023-02-09T04:27:27.362Z,86.58
2023-02-09T04:28:27.372Z,86.27
2023-02-09T04:29:27.286Z,85.21
2023-02-09T04:30:27.289Z,86.33
2023-02-09T04:31:27.416Z,88.33
2023-02-09T04:32:27.218Z,87.18
2023-02-09T04:33:27.192Z,85.70
2023-02-09T04:34:27.222Z,86.93
2023-02-09T04:35:27.177Z,86.61
2023-02-09T04:36:27.124Z,86.40
2023-02-09T04:37:27.108Z,86.93
2023-02-09T04:38:27.077Z,87.66
2023-02-09T04:39:27.052Z,86.61
2023-02-09T04:40:27.043Z,86.54
2023-02-09T04:41:27.067Z,86.65
2023-02-09T04:42:26.992Z,87.28
2023-02-09T04:43:26.961Z,87.60
2023-02-09T04:44:26.939Z,88.33
2023-02-09T04:45:27.000Z,88.54
2023-02-09T04:46:26.890Z,88.44
2023-02-09T04:47:26.918Z,87.81
2023-02-09T04:48:26.844Z,88.23
2023-02-09T04:49:26.820Z,88.86
2023-02-09T04:50:26.801Z,88.02
2023-02-09T04:51:26.774Z,87.18
2023-02-09T04:52:26.752Z,86.86
2023-02-09T04:53:26.746Z,87.38
2023-02-09T04:54:26.702Z,87.81
2023-02-09T04:55:26.684Z,88.54
2023-02-09T04:56:26.655Z,88.12
2023-02-09T04:57:26.647Z,88.33
2023-02-09T04:58:26.618Z,88.65
2023-02-09T04:59:26.588Z,87.95
2023-02-09T05:00:26.562Z,87.53
2023-02-09T05:01:26.592Z,87.70
2023-02-09T05:02:26.514Z,87.74
2023-02-09T05:03:26.556Z,86.90
2023-02-09T05:04:26.475Z,87.42
2023-02-09T05:05:26.451Z,87.85
2023-02-09T05:06:26.430Z,87.95
2023-02-09T05:07:26.403Z,87.11
2023-02-09T05:08:26.379Z,87.21
2023-02-09T05:09:26.385Z,87.21
2023-02-09T05:10:26.329Z,88.12
2023-02-09T05:11:26.324Z,88.44
2023-02-09T05:12:26.286Z,88.12
2023-02-09T05:13:26.265Z,88.08
2023-02-09T05:14:26.276Z,87.91
2023-02-09T05:15:26.223Z,87.81
2023-02-09T05:16:26.215Z,87.81
2023-02-09T05:17:26.183Z,87.81
2023-02-09T05:18:26.155Z,89.42
2023-02-09T05:19:26.122Z,88.48
2023-02-09T05:20:26.101Z,88.79
2023-02-09T05:21:26.110Z,89.00
2023-02-09T05:22:26.048Z,89.22
2023-02-09T05:23:26.029Z,90.37
2023-02-09T05:24:26.036Z,90.16
2023-02-09T05:25:25.986Z,89.04
2023-02-09T05:26:25.959Z,88.10
2023-02-09T05:27:25.954Z,87.57
2023-02-09T05:28:25.961Z,87.15
2023-02-09T05:29:25.890Z,85.85
2023-02-09T05:30:25.866Z,85.07
2023-02-09T05:31:25.979Z,84.05
2023-02-09T05:32:25.887Z,84.89
2023-02-09T05:33:25.813Z,84.58
2023-02-09T05:34:25.773Z,84.12
2023-02-09T05:35:25.782Z,84.89
2023-02-09T05:36:25.719Z,83.91
2023-02-09T05:37:25.701Z,83.21
2023-02-09T05:38:25.724Z,83.28
2023-02-09T05:39:25.656Z,82.12
2023-02-09T05:40:25.631Z,81.59
2023-02-09T05:41:25.604Z,80.40
2023-02-09T05:42:25.604Z,80.29
2023-02-09T05:43:25.562Z,78.96
2023-02-09T05:44:25.562Z,78.12
2023-02-09T05:45:25.552Z,77.91
2023-02-09T05:46:25.556Z,77.70
2023-02-09T05:47:25.477Z,77.80
2023-02-09T05:48:25.444Z,78.33
2023-02-09T05:49:25.419Z,78.78
2023-02-09T05:50:25.429Z,79.41
2023-02-09T05:51:25.376Z,79.59
2023-02-09T05:52:25.346Z,80.68
2023-02-09T05:53:25.326Z,83.20
2023-02-09T05:54:25.300Z,83.59
2023-02-09T05:55:25.304Z,84.22
2023-02-09T05:56:25.259Z,84.05
2023-02-09T05:57:25.232Z,84.92
2023-02-09T05:58:25.203Z,84.82
2023-02-09T05:59:25.181Z,85.55
2023-02-09T06:00:25.292Z,86.61
2023-02-09T06:01:25.132Z,86.93
2023-02-09T06:02:25.160Z,87.76
2023-02-09T06:03:25.130Z,87.91
2023-02-09T06:04:25.062Z,87.18
2023-02-09T06:05:25.039Z,88.96
2023-02-09T06:06:25.012Z,89.39
2023-02-09T06:07:25.020Z,88.54
2023-02-09T06:08:24.965Z,86.69
2023-02-09T06:09:24.943Z,85.60
2023-02-09T06:10:24.939Z,85.74
2023-02-09T06:11:24.899Z,84.89
2023-02-09T06:12:24.871Z,84.01
2023-02-09T06:13:24.868Z,83.81
2023-02-09T06:14:24.822Z,84.12
2023-02-09T06:15:24.845Z,83.59
2023-02-09T06:16:24.781Z,84.19
2023-02-09T06:17:24.794Z,82.86
2023-02-09T06:18:24.734Z,82.61
2023-02-09T06:19:24.731Z,80.26
2023-02-09T06:20:24.683Z,80.68
2023-02-09T06:21:24.681Z,80.64
2023-02-09T06:22:24.641Z,80.26
2023-02-09T06:23:24.668Z,80.68
2023-02-09T06:24:24.665Z,80.99
2023-02-09T06:25:24.584Z,80.61
2023-02-09T06:26:24.544Z,82.01
2023-02-09T06:27:24.527Z,82.86
2023-02-09T06:28:24.556Z,83.91
2023-02-09T06:29:24.475Z,84.05
2023-02-09T06:30:24.452Z,83.73
2023-02-09T06:31:24.532Z,83.81
2023-02-09T06:32:24.417Z,82.12
2023-02-09T06:33:24.380Z,81.98
2023-02-09T06:34:24.355Z,80.71
2023-02-09T06:35:24.442Z,80.15
2023-02-09T06:36:24.313Z,80.15
2023-02-09T06:37:24.292Z,79.27
2023-02-09T06:38:24.263Z,79.91
2023-02-09T06:39:24.320Z,78.75
2023-02-09T06:40:24.223Z,79.27
2023-02-09T06:41:24.216Z,80.33
2023-02-09T06:42:24.175Z,80.11
2023-02-09T06:43:24.143Z,80.05
2023-02-09T06:44:24.123Z,79.59
2023-02-09T06:45:24.129Z,80.26
2023-02-09T06:46:24.138Z,80.99
2023-02-09T06:47:24.057Z,80.26
2023-02-09T06:48:24.026Z,80.47
2023-02-09T06:49:24.007Z,80.89
2023-02-09T06:50:23.982Z,80.05
2023-02-09T06:51:23.962Z,79.91
2023-02-09T06:52:23.940Z,80.47
2023-02-09T06:53:23.919Z,80.11
2023-02-09T06:54:23.892Z,80.11
2023-02-09T06:55:23.899Z,79.91
2023-02-09T06:56:23.941Z,80.54
2023-02-09T06:57:23.818Z,80.54
2023-02-09T06:58:23.789Z,80.33
2023-02-09T06:59:23.772Z,80.33
2023-02-09T07:00:23.772Z,80.54
2023-02-09T07:01:23.807Z,80.54
2023-02-09T07:02:23.731Z,80.64
2023-02-09T07:03:23.681Z,80.75
2023-02-09T07:04:23.655Z,80.85
2023-02-09T07:05:23.630Z,80.85
2023-02-09T07:06:23.622Z,80.75
2023-02-09T07:07:25.462Z,81.70
2023-02-09T07:08:23.563Z,82.32
2023-02-09T07:09:23.532Z,82.95
2023-02-09T07:10:23.510Z,82.43
2023-02-09T07:11:23.490Z,82.75
2023-02-09T07:12:23.466Z,83.69
2023-02-09T07:13:23.478Z,84.11
2023-02-09T07:14:23.419Z,83.65
2023-02-09T07:15:23.393Z,83.97
2023-02-09T07:16:23.411Z,83.13
2023-02-09T07:17:23.347Z,81.87
2023-02-09T07:18:23.340Z,82.39
2023-02-09T07:19:23.327Z,83.97
2023-02-09T07:20:23.273Z,85.30
2023-02-09T07:21:23.253Z,85.33
2023-02-09T07:22:23.232Z,82.07
2023-02-09T07:23:23.211Z,80.08
2023-02-09T07:24:23.190Z,79.52
2023-02-09T07:25:23.162Z,79.41
2023-02-09T07:26:23.136Z,78.78
2023-02-09T07:27:23.139Z,78.67
2023-02-09T07:28:23.195Z,79.41
2023-02-09T07:29:23.082Z,79.41
2023-02-09T07:30:23.112Z,79.52
2023-02-09T07:31:23.118Z,79.52
2023-02-09T07:32:23.020Z,78.47
2023-02-09T07:33:22.995Z,79.21
2023-02-09T07:34:23.007Z,79.62
2023-02-09T07:35:22.929Z,79.80
2023-02-09T07:36:22.906Z,79.73
2023-02-09T07:37:22.890Z,78.78
2023-02-09T07:38:22.861Z,79.31
2023-02-09T07:39:22.865Z,78.53
2023-02-09T07:40:22.821Z,77.59
2023-02-09T07:41:22.792Z,77.70
2023-02-09T07:42:23.473Z,78.53
2023-02-09T07:43:22.741Z,79.80
2023-02-09T07:44:22.720Z,78.64
2023-02-09T07:45:22.700Z,78.43
2023-02-09T07:46:22.706Z,78.85
2023-02-09T07:47:22.664Z,79.90
2023-02-09T07:48:22.645Z,80.00
2023-02-09T07:49:22.617Z,80.22
2023-02-09T07:50:22.600Z,79.80
2023-02-09T07:51:22.588Z,80.22
2023-02-09T07:52:22.556Z,79.38
2023-02-09T07:53:22.508Z,79.17
2023-02-09T07:54:22.491Z,79.86
2023-02-09T07:55:22.472Z,80.22
2023-02-09T07:56:22.442Z,79.97
2023-02-09T07:57:22.426Z,79.66
2023-02-09T07:58:22.406Z,81.44
2023-02-09T07:59:22.385Z,80.60
2023-02-09T08:00:22.388Z,80.60
2023-02-09T08:01:22.440Z,80.18
2023-02-09T08:02:22.309Z,81.12
2023-02-09T08:03:22.342Z,81.76
2023-02-09T08:04:22.293Z,82.07
2023-02-09T08:05:22.259Z,81.86
2023-02-09T08:06:26.046Z,81.96
2023-02-09T08:07:22.192Z,81.23
2023-02-09T08:08:22.168Z,80.18
2023-02-09T08:09:22.144Z,80.71
2023-02-09T08:10:22.121Z,80.29
2023-02-09T08:11:22.142Z,78.61
2023-02-09T08:12:22.124Z,78.50
2023-02-09T08:13:22.052Z,77.62
2023-02-09T08:14:22.067Z,76.89
2023-02-09T08:15:22.018Z,76.89
2023-02-09T08:16:22.019Z,76.37
2023-02-09T08:17:21.988Z,76.79
2023-02-09T08:18:21.942Z,74.27
2023-02-09T08:19:21.937Z,75.92
2023-02-09T08:20:21.907Z,76.02
2023-02-09T08:21:21.876Z,75.60
2023-02-09T08:22:21.875Z,75.92
2023-02-09T08:23:21.852Z,76.33
2023-02-09T08:24:21.811Z,77.07
2023-02-09T08:25:21.784Z,77.48
2023-02-09T08:26:21.765Z,78.64
2023-02-09T08:27:21.764Z,79.16
2023-02-09T08:28:22.773Z,76.79
2023-02-09T08:29:21.697Z,77.38
2023-02-09T08:30:21.675Z,78.33
2023-02-09T08:31:21.902Z,76.96
2023-02-09T08:32:21.628Z,76.33
2023-02-09T08:33:21.607Z,76.96
2023-02-09T08:34:21.644Z,76.12
2023-02-09T08:35:21.562Z,76.33
2023-02-09T08:36:21.543Z,76.23
2023-02-09T08:37:21.521Z,76.33
2023-02-09T08:38:21.500Z,75.92
2023-02-09T08:39:21.471Z,76.65
2023-02-09T08:40:21.480Z,76.72
2023-02-09T08:41:21.425Z,77.24
2023-02-09T08:42:21.405Z,77.76
2023-02-09T08:43:21.388Z,79.13
2023-02-09T08:44:21.359Z,78.60
2023-02-09T08:45:21.356Z,78.60
2023-02-09T08:46:21.507Z,77.83
2023-02-09T08:47:21.294Z,77.66
2023-02-09T08:48:21.278Z,77.76
2023-02-09T08:49:21.253Z,78.71
2023-02-09T08:50:21.228Z,78.78
2023-02-09T08:51:21.237Z,79.20
2023-02-09T08:52:21.183Z,77.31
2023-02-09T08:53:21.162Z,76.26
2023-02-09T08:54:21.194Z,74.80
2023-02-09T08:55:21.126Z,74.48
2023-02-09T08:56:21.104Z,75.32
2023-02-09T08:57:21.078Z,76.57
2023-02-09T08:58:21.075Z,76.68
2023-02-09T08:59:21.032Z,76.37
2023-02-09T09:00:21.035Z,77.31
2023-02-09T09:01:21.066Z,78.85
2023-02-09T09:02:20.963Z,75.84
2023-02-09T09:03:20.979Z,74.87
2023-02-09T09:04:20.931Z,76.68
2023-02-09T09:05:20.959Z,76.54
2023-02-09T09:06:20.879Z,75.70
2023-02-09T09:07:20.860Z,75.70
2023-02-09T09:08:20.837Z,74.66
2023-02-09T09:09:20.809Z,75.08
2023-02-09T09:10:20.798Z,74.76
2023-02-09T09:11:20.813Z,75.18
2023-02-09T09:12:20.754Z,74.24
2023-02-09T09:13:20.759Z,74.55
2023-02-09T09:14:20.703Z,74.55
2023-02-09T09:15:20.678Z,76.96
2023-02-09T09:16:20.701Z,75.46
2023-02-09T09:17:20.665Z,76.40
2023-02-09T09:18:20.616Z,76.65
2023-02-09T09:19:20.634Z,75.46
2023-02-09T09:20:20.581Z,76.61
2023-02-09T09:21:20.546Z,75.67
2023-02-09T09:22:20.529Z,75.35
2023-02-09T09:23:20.503Z,76.82
2023-02-09T09:24:20.484Z,77.34
2023-02-09T09:25:20.457Z,77.14
2023-02-09T09:26:20.482Z,77.14
2023-02-09T09:27:20.464Z,76.93
2023-02-09T09:28:20.457Z,76.72
2023-02-09T09:29:20.379Z,74.69
2023-02-09T09:30:20.383Z,74.17
2023-02-09T09:31:20.476Z,74.80
2023-02-09T09:32:20.391Z,74.07
2023-02-09T09:33:20.296Z,75.01
2023-02-09T09:34:20.298Z,75.63
2023-02-09T09:35:20.256Z,75.53
2023-02-09T09:36:20.246Z,74.27
2023-02-09T09:37:20.211Z,76.06
2023-02-09T09:38:20.182Z,76.86
2023-02-09T09:39:20.160Z,74.38
2023-02-09T09:40:20.160Z,73.33
2023-02-09T09:41:20.175Z,75.32
2023-02-09T09:42:20.092Z,76.06
2023-02-09T09:43:20.068Z,73.75
2023-02-09T09:44:20.050Z,74.27
2023-02-09T09:45:20.025Z,74.27
2023-02-09T09:46:20.094Z,75.18
2023-02-09T09:47:20.011Z,73.61
2023-02-09T09:48:19.961Z,74.35
2023-02-09T09:49:19.987Z,73.41
2023-02-09T09:50:20.053Z,74.35
2023-02-09T09:51:19.960Z,74.17
2023-02-09T09:52:19.879Z,74.35
2023-02-09T09:53:19.859Z,75.39
2023-02-09T09:54:19.836Z,75.78
2023-02-09T09:55:19.837Z,74.14
2023-02-09T09:56:19.794Z,73.30
2023-02-09T09:57:19.765Z,75.29
2023-02-09T09:58:19.766Z,75.92
2023-02-09T09:59:19.729Z,74.63
2023-02-09T10:00:19.802Z,74.21
2023-02-09T10:01:19.710Z,74.84
2023-02-09T10:02:19.671Z,75.15
2023-02-09T10:03:19.647Z,74.42
2023-02-09T10:04:19.671Z,73.90
2023-02-09T10:05:19.665Z,73.06
2023-02-09T10:06:19.592Z,71.49
2023-02-09T10:07:21.255Z,70.34
2023-02-09T10:08:19.529Z,70.55
2023-02-09T10:09:19.509Z,72.08
2023-02-09T10:10:19.586Z,74.91
2023-02-09T10:11:19.515Z,73.86
2023-02-09T10:12:19.460Z,72.40
2023-02-09T10:13:19.418Z,72.30
2023-02-09T10:14:19.407Z,72.81
2023-02-09T10:15:19.377Z,73.96
2023-02-09T10:16:19.401Z,71.32
2023-02-09T10:17:19.401Z,70.28
2023-02-09T10:18:19.312Z,69.65
2023-02-09T10:19:19.302Z,69.54
2023-02-09T10:20:19.315Z,70.07
2023-02-09T10:21:19.251Z,69.96
2023-02-09T10:22:19.264Z,69.54
2023-02-09T10:23:19.207Z,70.35
2023-02-09T10:24:19.187Z,69.41
2023-02-09T10:25:19.170Z,69.93
2023-02-09T10:26:19.147Z,69.51
2023-02-09T10:27:19.148Z,71.29
2023-02-09T10:28:19.180Z,72.23
2023-02-09T10:29:19.076Z,71.50
2023-02-09T10:30:19.144Z,72.13
2023-02-09T10:31:19.127Z,71.88
2023-02-09T10:32:19.033Z,69.93
2023-02-09T10:33:18.993Z,69.79
2023-02-09T10:34:18.999Z,71.08
2023-02-09T10:35:18.979Z,71.88
2023-02-09T10:36:18.930Z,72.44
2023-02-09T10:37:18.952Z,71.78
2023-02-09T10:38:18.914Z,70.94
2023-02-09T10:39:18.862Z,70.25
2023-02-09T10:40:18.952Z,71.36
2023-02-09T10:41:18.821Z,71.39
2023-02-09T10:42:19.306Z,70.11
2023-02-09T10:43:18.849Z,70.11
2023-02-09T10:44:18.758Z,71.36
2023-02-09T10:45:18.752Z,71.98
2023-02-09T10:46:18.809Z,71.67
2023-02-09T10:47:18.698Z,69.07
2023-02-09T10:48:18.680Z,68.44
2023-02-09T10:49:18.658Z,69.07
2023-02-09T10:50:18.629Z,69.48
2023-02-09T10:51:18.612Z,69.59
2023-02-09T10:52:18.620Z,70.21
2023-02-09T10:53:18.579Z,69.79
2023-02-09T10:54:18.567Z,71.98
2023-02-09T10:55:18.526Z,71.26
2023-02-09T10:56:18.537Z,71.85
2023-02-09T10:57:18.530Z,71.78
2023-02-09T10:58:18.468Z,71.95
2023-02-09T10:59:18.445Z,69.87
2023-02-09T11:00:18.571Z,69.79
2023-02-09T11:01:18.420Z,72.09
2023-02-09T11:02:18.400Z,70.00
2023-02-09T11:03:18.391Z,69.87
2023-02-09T11:04:18.378Z,71.75
2023-02-09T11:05:18.322Z,70.00
2023-02-09T11:06:18.307Z,71.36
2023-02-09T11:07:18.309Z,71.26
2023-02-09T11:08:18.263Z,71.33
2023-02-09T11:09:18.248Z,69.66
2023-02-09T11:10:18.283Z,71.15
2023-02-09T11:11:18.230Z,71.15
2023-02-09T11:12:18.185Z,71.26
2023-02-09T11:13:18.185Z,69.48
2023-02-09T11:14:18.142Z,71.26
2023-02-09T11:15:18.115Z,71.47
2023-02-09T11:16:18.197Z,72.09
2023-02-09T11:17:18.077Z,72.61
2023-02-09T11:18:18.053Z,72.41
2023-02-09T11:19:18.029Z,71.22
2023-02-09T11:20:18.115Z,70.50
2023-02-09T11:21:17.989Z,71.12
2023-02-09T11:22:18.019Z,72.44
2023-02-09T11:23:17.957Z,72.34
2023-02-09T11:24:17.941Z,71.61
2023-02-09T11:25:17.902Z,69.42
2023-02-09T11:26:17.914Z,71.61
2023-02-09T11:27:17.864Z,70.36
2023-02-09T11:28:17.940Z,69.66
2023-02-09T11:29:17.835Z,69.35
2023-02-09T11:30:17.884Z,70.67
2023-02-09T11:31:17.831Z,69.24
2023-02-09T11:32:17.804Z,70.04
2023-02-09T11:33:17.738Z,70.04
2023-02-09T11:34:17.725Z,70.98
2023-02-09T11:35:17.697Z,69.59
2023-02-09T11:36:17.675Z,69.94
2023-02-09T11:37:17.665Z,70.15
2023-02-09T11:38:17.664Z,70.32
2023-02-09T11:39:17.615Z,68.90
2023-02-09T11:40:17.598Z,69.63
2023-02-09T11:41:17.571Z,69.94
2023-02-09T11:42:17.558Z,71.30
2023-02-09T11:43:17.551Z,70.84
2023-02-09T11:44:17.509Z,71.37
2023-02-09T11:45:17.491Z,71.47
2023-02-09T11:46:17.548Z,69.49
2023-02-09T11:47:17.503Z,71.05
2023-02-09T11:48:17.448Z,70.64
2023-02-09T11:49:17.407Z,71.86
2023-02-09T11:50:17.392Z,71.23
2023-02-09T11:51:17.486Z,69.53
2023-02-09T11:52:17.352Z,71.44
2023-02-09T11:53:17.348Z,70.19
2023-02-09T11:54:17.320Z,69.77
2023-02-09T11:55:17.285Z,69.46
2023-02-09T11:56:17.267Z,71.20
2023-02-09T11:57:17.246Z,69.77
2023-02-09T11:58:17.248Z,69.46
2023-02-09T11:59:17.197Z,70.50
2023-02-09T12:00:17.178Z,70.19
2023-02-09T12:01:17.615Z,69.77
2023-02-09T12:02:17.142Z,72.06
2023-02-09T12:03:17.247Z,71.72
2023-02-09T12:04:17.130Z,69.64
2023-02-09T12:05:17.074Z,69.92
2023-02-09T12:06:17.138Z,69.95
2023-02-09T12:07:17.050Z,68.70
2023-02-09T12:08:17.024Z,70.15
2023-02-09T12:09:17.022Z,69.22
2023-02-09T12:10:17.006Z,69.74
2023-02-09T12:11:16.963Z,71.27
2023-02-09T12:12:16.948Z,72.13
2023-02-09T12:13:16.913Z,69.64
2023-02-09T12:14:16.906Z,69.53
2023-02-09T12:15:16.888Z,69.64
2023-02-09T12:16:16.910Z,69.84
2023-02-09T12:17:16.839Z,69.74
2023-02-09T12:18:16.817Z,69.77
2023-02-09T12:19:16.798Z,68.28
2023-02-09T12:20:16.829Z,69.43
2023-02-09T12:21:16.752Z,70.99
2023-02-09T12:22:16.735Z,70.54
2023-02-09T12:23:16.722Z,71.69
2023-02-09T12:24:16.695Z,69.71
2023-02-09T12:25:16.705Z,69.19
2023-02-09T12:26:16.661Z,69.50
2023-02-09T12:27:16.630Z,69.29
2023-02-09T12:28:16.643Z,70.85
2023-02-09T12:29:16.595Z,68.66
2023-02-09T12:30:16.572Z,69.60
2023-02-09T12:31:16.701Z,69.71
2023-02-09T12:32:16.562Z,68.66
2023-02-09T12:33:16.516Z,68.98
2023-02-09T12:34:16.490Z,69.09
2023-02-09T12:35:16.496Z,70.02
2023-02-09T12:36:16.479Z,69.19
2023-02-09T12:37:16.457Z,68.66
2023-02-09T12:38:16.411Z,67.32
2023-02-09T12:39:16.406Z,68.43
2023-02-09T12:40:16.372Z,68.01
2023-02-09T12:41:16.386Z,68.71
2023-02-09T12:42:16.336Z,66.31
2023-02-09T12:43:16.308Z,66.63
2023-02-09T12:44:16.290Z,66.94
2023-02-09T12:45:16.275Z,67.15
2023-02-09T12:46:16.312Z,67.36
2023-02-09T12:47:16.358Z,66.74
2023-02-09T12:48:16.212Z,66.42
2023-02-09T12:49:16.217Z,67.22
2023-02-09T12:50:16.173Z,67.02
2023-02-09T12:51:16.150Z,67.33
2023-02-09T12:52:16.132Z,66.39